createdAt,value
2024-03-12T00:01:10.079Z,34.40
2024-03-12T00:03:37.432Z,32.70
2024-03-12T00:06:05.369Z,31.10
2024-03-12T00:08:34.920Z,32.40
2024-03-12T00:11:01.302Z,33.70
2024-03-12T00:13:28.003Z,30.80
2024-03-12T00:15:55.776Z,31.20
2024-03-12T00:18:26.453Z,34.10
2024-03-12T00:20:56.564Z,35.60
2024-03-12T00:23:27.125Z,34.90
2024-03-12T00:25:53.900Z,32.90
2024-03-12T00:28:20.681Z,33.90
2024-03-12T00:30:47.166Z,31.20
2024-03-12T00:33:13.863Z,32.60
2024-03-12T00:35:44.808Z,33.00
2024-03-12T00:38:11.995Z,33.50
2024-03-12T00:40:39.945Z,35.30
2024-03-12T00:43:09.949Z,34.50
2024-03-12T00:45:40.775Z,35.90
2024-03-12T00:48:10.660Z,35.70
2024-03-12T00:50:38.321Z,35.60
2024-03-12T00:53:05.116Z,36.40
2024-03-12T00:55:32.186Z,36.20
2024-03-12T01:00:30.514Z,34.10
2024-03-12T01:03:02.260Z,33.90
2024-03-12T01:05:31.842Z,34.50
2024-03-12T01:08:00.026Z,34.10
2024-03-12T01:10:31.307Z,34.50
2024-03-12T01:13:02.434Z,35.60
2024-03-12T01:15:30.141Z,34.40
2024-03-12T01:17:57.880Z,35.70
2024-03-12T01:20:26.456Z,31.60
2024-03-12T01:22:55.317Z,35.20
2024-03-12T01:25:26.195Z,33.50
2024-03-12T01:27:58.883Z,34.90
2024-03-12T01:30:28.886Z,32.80
2024-03-12T01:32:56.009Z,35.00
2024-03-12T01:35:24.027Z,33.40
2024-03-12T01:37:50.835Z,34.70
2024-03-12T01:40:27.669Z,35.60
2024-03-12T01:42:57.905Z,34.70
2024-03-12T01:45:25.669Z,35.10
2024-03-12T01:47:53.315Z,35.10
2024-03-12T01:50:22.819Z,37.00
2024-03-12T01:52:54.306Z,32.20
2024-03-12T01:55:23.568Z,36.60
2024-03-12T01:57:53.078Z,35.20
2024-03-12T02:00:19.905Z,34.10
2024-03-12T02:02:48.554Z,34.80
2024-03-12T02:05:15.064Z,36.70
2024-03-12T02:07:41.925Z,37.20
2024-03-12T02:10:09.535Z,35.40
2024-03-12T02:12:36.712Z,37.80
2024-03-12T02:15:04.863Z,37.60
2024-03-12T02:17:31.534Z,33.50
2024-03-12T02:20:01.378Z,39.30
2024-03-12T02:22:28.850Z,35.40
2024-03-12T02:24:55.275Z,40.10
2024-03-12T02:27:21.704Z,37.10
2024-03-12T02:29:48.985Z,36.80
2024-03-12T02:32:15.596Z,38.20
2024-03-12T02:34:42.081Z,36.70
2024-03-12T02:37:08.568Z,38.10
2024-03-12T02:39:36.526Z,37.70
2024-03-12T02:42:03.302Z,39.00
2024-03-12T02:44:32.463Z,38.40
2024-03-12T02:46:58.966Z,38.90
2024-03-12T02:49:25.550Z,34.60
2024-03-12T02:51:53.089Z,37.90
2024-03-12T02:54:22.036Z,37.80
2024-03-12T02:56:52.413Z,39.00
2024-03-12T02:59:18.810Z,39.50
2024-03-12T03:01:45.274Z,40.50
2024-03-12T03:04:11.786Z,37.70
2024-03-12T03:06:38.536Z,37.70
2024-03-12T03:09:10.302Z,40.50
2024-03-12T03:11:39.932Z,35.60
2024-03-12T03:14:06.560Z,38.30
2024-03-12T03:16:34.366Z,38.80
2024-03-12T03:19:00.936Z,39.10
2024-03-12T03:21:28.381Z,38.80
2024-03-12T03:23:57.739Z,39.00
2024-03-12T03:26:24.470Z,36.30
2024-03-12T03:28:50.998Z,37.90
2024-03-12T03:31:17.551Z,36.40
2024-03-12T03:33:48.682Z,39.30
2024-03-12T03:36:18.375Z,39.30
2024-03-12T03:38:45.128Z,36.00
2024-03-12T03:41:14.661Z,39.30
2024-03-12T03:43:44.318Z,38.80
2024-03-12T03:46:11.014Z,36.00
2024-03-12T03:48:37.518Z,38.50
2024-03-12T03:51:04.565Z,36.70
2024-03-12T03:53:30.966Z,37.80
2024-03-12T03:55:57.451Z,35.90
2024-03-12T03:58:26.587Z,37.70
2024-03-12T04:00:56.023Z,35.30
2024-03-12T04:03:22.469Z,36.80
2024-03-12T04:05:49.015Z,37.00
2024-03-12T04:08:17.571Z,37.10
2024-03-12T04:10:44.113Z,37.00
2024-03-12T04:13:10.875Z,39.10
2024-03-12T04:15:37.518Z,37.80
2024-03-12T04:18:07.182Z,36.20
2024-03-12T04:20:33.681Z,35.20
2024-03-12T04:23:00.122Z,38.20
2024-03-12T04:25:29.866Z,39.20
2024-03-12T04:27:57.204Z,35.00
2024-03-12T04:30:23.771Z,37.50
2024-03-12T04:32:50.191Z,29.20
2024-03-12T04:35:17.058Z,37.20
2024-03-12T04:37:43.621Z,36.80
2024-03-12T04:40:13.453Z,40.90
2024-03-12T04:42:40.319Z,39.00
2024-03-12T04:45:07.879Z,38.80
2024-03-12T04:47:36.686Z,40.70
2024-03-12T04:52:31.042Z,35.80
2024-03-12T04:54:58.328Z,38.90
2024-03-12T04:57:25.432Z,37.70
2024-03-12T04:59:51.950Z,38.20
2024-03-12T05:02:18.297Z,40.20
2024-03-12T05:04:44.847Z,38.10
2024-03-12T05:07:13.061Z,40.30
2024-03-12T05:09:39.821Z,39.00
2024-03-12T05:12:06.594Z,39.50
2024-03-12T05:14:35.947Z,38.40
2024-03-12T05:17:02.401Z,36.20
2024-03-12T05:19:28.877Z,38.20
2024-03-12T05:21:55.406Z,36.30
2024-03-12T05:24:21.923Z,35.60
2024-03-12T05:26:51.459Z,34.60
2024-03-12T05:29:22.017Z,31.40
2024-03-12T05:31:48.509Z,32.40
2024-03-12T05:34:19.987Z,33.40
2024-03-12T05:36:50.061Z,32.70
2024-03-12T05:39:21.717Z,32.10
2024-03-12T05:42:11.224Z,28.30
2024-03-12T05:45:17.254Z,29.10
2024-03-12T05:48:02.570Z,29.60
2024-03-12T05:50:29.150Z,29.80
2024-03-12T05:52:55.519Z,28.30
2024-03-12T05:55:22.248Z,27.20
2024-03-12T05:57:48.730Z,28.60
2024-03-12T06:00:15.597Z,28.60
2024-03-12T06:02:45.898Z,27.90
2024-03-12T06:05:14.246Z,27.50
2024-03-12T06:07:42.647Z,27.40
2024-03-12T06:10:10.281Z,24.50
2024-03-12T06:12:40.463Z,26.90
2024-03-12T06:15:07.880Z,24.70
2024-03-12T06:17:38.647Z,24.70
2024-03-12T06:20:09.274Z,23.00
2024-03-12T06:22:38.172Z,22.80
2024-03-12T06:25:05.392Z,20.60
2024-03-12T06:27:33.535Z,20.10
2024-03-12T06:30:00.827Z,19.70
2024-03-12T06:32:32.835Z,17.20
2024-03-12T06:34:59.618Z,18.10
2024-03-12T06:37:28.293Z,17.70
2024-03-12T06:39:55.948Z,17.60
2024-03-12T06:42:30.544Z,18.80
2024-03-12T06:44:58.056Z,17.60
2024-03-12T06:47:34.096Z,17.90
2024-03-12T06:50:00.609Z,18.10
2024-03-12T06:52:27.976Z,20.60
2024-03-12T06:54:54.763Z,19.50
2024-03-12T06:57:25.688Z,20.90
2024-03-12T06:59:52.562Z,20.70
2024-03-12T07:02:19.307Z,20.30
2024-03-12T07:04:48.572Z,20.70
2024-03-12T07:07:20.463Z,21.00
2024-03-12T07:09:47.684Z,21.50
2024-03-12T07:12:17.879Z,21.90
2024-03-12T07:14:47.071Z,21.20
2024-03-12T07:17:15.725Z,21.30
2024-03-12T07:19:44.092Z,23.10
2024-03-12T07:22:12.268Z,23.30
2024-03-12T07:29:37.755Z,20.30
2024-03-12T07:32:06.055Z,19.00
2024-03-12T07:34:32.630Z,22.40
2024-03-12T07:37:00.651Z,22.20
2024-03-12T07:39:32.470Z,21.30
2024-03-12T07:42:00.519Z,22.00
2024-03-12T07:44:27.842Z,23.10
2024-03-12T07:46:56.056Z,22.80
2024-03-12T07:49:23.182Z,21.50
2024-03-12T07:51:50.610Z,20.70
2024-03-12T07:54:20.295Z,21.90
2024-03-12T07:56:50.157Z,22.50
2024-03-12T07:59:18.176Z,21.60
2024-03-12T08:01:47.589Z,22.30
2024-03-12T08:04:14.230Z,22.20
2024-03-12T08:06:41.511Z,20.50
2024-03-12T08:09:08.919Z,20.40
2024-03-12T08:11:35.677Z,20.90
2024-03-12T08:14:02.233Z,20.50
2024-03-12T08:16:30.242Z,20.80
2024-03-12T08:18:59.505Z,20.50
2024-03-12T08:21:28.693Z,20.50
2024-03-12T08:23:57.378Z,19.20
2024-03-12T08:26:23.795Z,22.00
2024-03-12T08:28:52.403Z,20.50
2024-03-12T08:31:30.688Z,20.70
2024-03-12T08:34:02.060Z,20.70
2024-03-12T08:36:28.562Z,20.20
2024-03-12T08:38:55.325Z,20.80
2024-03-12T08:41:21.912Z,20.80
2024-03-12T08:43:48.294Z,24.00
2024-03-12T08:46:15.461Z,20.80
2024-03-12T08:48:42.150Z,23.00
2024-03-12T08:51:09.970Z,21.30
2024-03-12T08:53:37.075Z,23.80
2024-03-12T08:56:04.703Z,23.20
2024-03-12T08:58:31.398Z,22.90
2024-03-12T09:00:58.736Z,22.70
2024-03-12T09:03:25.739Z,23.10
2024-03-12T09:05:54.312Z,21.40
2024-03-12T09:10:48.962Z,23.20
2024-03-12T09:13:20.696Z,22.10
2024-03-12T09:15:49.589Z,23.40
2024-03-12T09:18:24.497Z,22.40
2024-03-12T09:20:53.829Z,22.00
2024-03-12T09:23:20.344Z,21.40
2024-03-12T09:25:47.073Z,21.70
2024-03-12T09:28:15.978Z,22.90
2024-03-12T09:30:42.702Z,21.70
2024-03-12T09:33:09.200Z,21.70
2024-03-12T09:35:39.113Z,18.70
2024-03-12T09:38:06.296Z,21.80
2024-03-12T09:40:33.538Z,20.30
2024-03-12T09:43:04.859Z,19.90
2024-03-12T09:45:31.971Z,21.00
2024-03-12T09:47:58.559Z,21.10
2024-03-12T09:50:26.518Z,20.10
2024-03-12T09:52:53.192Z,18.00
2024-03-12T09:55:20.855Z,17.10
2024-03-12T09:57:48.123Z,18.10
2024-03-12T10:00:26.913Z,18.00
2024-03-12T10:02:53.444Z,17.30
2024-03-12T10:05:23.072Z,17.50
2024-03-12T10:08:08.726Z,14.10
2024-03-12T10:10:39.696Z,15.20
2024-03-12T10:13:06.516Z,15.50
2024-03-12T10:15:38.285Z,15.50
2024-03-12T10:18:08.268Z,16.20
2024-03-12T10:20:49.009Z,14.80
2024-03-12T10:23:16.834Z,16.60
2024-03-12T10:25:45.907Z,14.80
2024-03-12T10:28:15.719Z,14.30
2024-03-12T10:30:43.427Z,14.00
2024-03-12T10:33:17.402Z,13.80
2024-03-12T10:35:45.558Z,12.80
2024-03-12T10:38:27.078Z,13.70
2024-03-12T10:40:59.558Z,15.10
2024-03-12T10:43:26.029Z,12.70
2024-03-12T10:45:53.251Z,13.70
2024-03-12T10:48:20.202Z,14.00
2024-03-12T10:50:46.800Z,14.00
2024-03-12T10:53:13.237Z,19.00
2024-03-12T10:55:39.838Z,19.50
2024-03-12T10:58:12.641Z,14.50
2024-03-12T11:00:41.977Z,14.10
2024-03-12T11:03:11.350Z,13.20
2024-03-12T11:05:43.331Z,13.30
2024-03-12T11:08:15.547Z,13.90
2024-03-12T11:10:43.401Z,14.40
2024-03-12T11:13:10.127Z,12.80
2024-03-12T11:15:36.994Z,12.00
2024-03-12T11:18:06.504Z,12.70
2024-03-12T11:20:34.562Z,11.40
2024-03-12T11:23:02.144Z,12.50
2024-03-12T11:25:35.619Z,11.90
2024-03-12T11:28:24.878Z,12.10
2024-03-12T11:31:08.068Z,11.60
2024-03-12T11:33:53.851Z,11.30
2024-03-12T11:36:30.398Z,10.70
2024-03-12T11:39:05.941Z,10.00
2024-03-12T11:42:07.324Z,10.60
2024-03-12T11:44:53.632Z,10.80
2024-03-12T11:47:38.076Z,11.00
2024-03-12T11:50:11.625Z,10.00
2024-03-12T11:52:38.456Z,10.50
2024-03-12T11:55:08.849Z,10.60
2024-03-12T11:57:36.038Z,11.10
2024-03-12T12:00:02.964Z,12.80
2024-03-12T12:02:29.391Z,12.90
2024-03-12T12:04:59.731Z,13.70
2024-03-12T12:07:26.825Z,12.90
2024-03-12T12:09:53.579Z,13.60
2024-03-12T12:12:20.994Z,13.70
2024-03-12T12:14:51.078Z,14.00
2024-03-12T12:17:22.926Z,13.40
2024-03-12T12:20:17.960Z,14.60
2024-03-12T12:22:47.220Z,15.10
2024-03-12T12:25:20.694Z,13.60
2024-03-12T12:27:50.529Z,14.20
2024-03-12T12:30:18.630Z,15.20
2024-03-12T12:32:46.889Z,14.80
2024-03-12T12:35:15.236Z,14.70
2024-03-12T12:37:42.860Z,15.50
2024-03-12T12:40:11.090Z,14.80
2024-03-12T12:42:41.001Z,13.10
2024-03-12T12:45:09.906Z,13.80
2024-03-12T12:47:37.453Z,13.50
2024-03-12T12:50:04.659Z,15.30
2024-03-12T12:52:31.390Z,14.10
2024-03-12T12:55:01.858Z,14.00
2024-03-12T12:57:31.815Z,14.30
2024-03-12T12:59:58.445Z,14.60
2024-03-12T13:02:31.339Z,14.70
2024-03-12T13:05:04.192Z,13.90
2024-03-12T13:07:35.997Z,14.10
2024-03-12T13:10:20.694Z,14.20
2024-03-12T13:12:48.188Z,15.50
2024-03-12T13:15:27.994Z,17.30
2024-03-12T13:17:54.786Z,15.00
2024-03-12T13:20:21.847Z,16.60
2024-03-12T13:22:54.522Z,15.40
2024-03-12T13:25:21.977Z,15.80
2024-03-12T13:27:48.905Z,15.70
2024-03-12T13:30:15.929Z,16.00
2024-03-12T13:32:45.657Z,15.90
2024-03-12T13:35:12.349Z,16.10
2024-03-12T13:37:40.382Z,14.70
2024-03-12T13:40:07.688Z,14.80
2024-03-12T13:42:36.334Z,14.80
2024-03-12T13:45:03.296Z,16.20
2024-03-12T13:47:34.021Z,14.80
2024-03-12T13:50:06.829Z,14.60
2024-03-12T13:52:34.090Z,15.60
2024-03-12T13:55:01.203Z,15.60
2024-03-12T13:57:28.296Z,15.50
2024-03-12T13:59:54.714Z,16.00
2024-03-12T14:02:24.375Z,16.50
2024-03-12T14:04:51.012Z,15.90
2024-03-12T14:07:19.687Z,15.70
2024-03-12T14:09:48.526Z,16.30
2024-03-12T14:12:15.068Z,16.90
2024-03-12T14:14:42.186Z,16.60
2024-03-12T14:17:08.680Z,16.80
2024-03-12T14:19:35.432Z,16.40
2024-03-12T14:22:02.252Z,17.80
2024-03-12T14:24:28.976Z,17.90
2024-03-12T14:26:55.410Z,16.80
2024-03-12T14:29:22.332Z,16.30
2024-03-12T14:31:49.083Z,17.80
2024-03-12T14:34:15.599Z,17.50
2024-03-12T14:36:42.055Z,17.00
2024-03-12T14:39:09.090Z,16.90
2024-03-12T14:41:35.647Z,17.40
2024-03-12T14:44:02.069Z,17.40
2024-03-12T14:46:30.712Z,17.10
2024-03-12T14:49:01.156Z,16.80
2024-03-12T14:51:28.278Z,17.30
2024-03-12T14:53:54.927Z,17.00
2024-03-12T14:56:21.963Z,16.40
2024-03-12T14:58:48.301Z,17.80
2024-03-12T15:01:14.944Z,17.70
2024-03-12T15:03:42.333Z,18.10
2024-03-12T15:06:10.565Z,19.30
2024-03-12T15:08:37.189Z,16.10
2024-03-12T15:11:04.538Z,16.10
2024-03-12T15:13:34.597Z,17.50
2024-03-12T15:16:01.291Z,15.50
2024-03-12T15:18:28.869Z,17.30
2024-03-12T15:20:55.851Z,18.40
2024-03-12T15:23:22.391Z,19.10
2024-03-12T15:25:50.173Z,19.20
2024-03-12T15:28:16.743Z,19.20
2024-03-12T15:30:44.266Z,17.00
2024-03-12T15:33:12.101Z,18.40
2024-03-12T15:35:39.700Z,17.90
2024-03-12T15:38:06.393Z,17.50
2024-03-12T15:40:33.474Z,16.00
2024-03-12T15:43:00.998Z,16.20
2024-03-12T15:45:27.573Z,19.80
2024-03-12T15:47:54.018Z,16.00
2024-03-12T15:50:22.987Z,17.90
2024-03-12T15:52:49.466Z,17.00
2024-03-12T15:55:16.226Z,18.50
2024-03-12T15:57:46.107Z,20.20
2024-03-12T16:00:16.456Z,20.20
2024-03-12T16:02:43.808Z,18.10
2024-03-12T16:05:10.546Z,20.80
2024-03-12T16:07:37.437Z,20.80
2024-03-12T16:10:09.856Z,19.70
2024-03-12T16:12:37.428Z,20.40
2024-03-12T16:15:06.652Z,21.10
2024-03-12T16:20:23.340Z,20.40
2024-03-12T16:22:49.750Z,20.30
2024-03-12T16:25:16.248Z,20.80
2024-03-12T16:27:44.552Z,21.00
2024-03-12T16:30:14.589Z,19.50
2024-03-12T16:32:42.140Z,20.60
2024-03-12T16:35:11.932Z,21.10
2024-03-12T16:37:39.330Z,19.80
2024-03-12T16:40:10.469Z,20.90
2024-03-12T16:42:37.461Z,21.00
2024-03-12T16:45:04.863Z,21.60
2024-03-12T16:47:32.070Z,22.90
2024-03-12T16:50:01.142Z,21.00
2024-03-12T16:52:28.673Z,21.40
2024-03-12T16:54:56.006Z,20.10
2024-03-12T16:57:23.039Z,18.70
2024-03-12T16:59:56.974Z,24.40
2024-03-12T17:02:30.638Z,27.50
2024-03-12T17:05:00.471Z,25.70
2024-03-12T17:07:27.060Z,23.90
2024-03-12T17:09:54.785Z,23.60
2024-03-12T17:12:26.117Z,24.10
2024-03-12T17:14:52.830Z,22.70
2024-03-12T17:17:24.292Z,23.00
2024-03-12T17:19:52.549Z,24.40
2024-03-12T17:22:21.367Z,22.90
2024-03-12T17:24:48.993Z,23.00
2024-03-12T17:27:16.405Z,22.00
2024-03-12T17:29:43.919Z,22.90
2024-03-12T17:32:13.707Z,19.90
2024-03-12T17:34:43.385Z,23.20
2024-03-12T17:37:16.773Z,25.10
2024-03-12T17:39:47.530Z,24.60
2024-03-12T17:42:15.495Z,25.30
2024-03-12T17:44:42.394Z,25.50
2024-03-12T17:47:09.341Z,24.50
2024-03-12T17:49:40.340Z,23.50
2024-03-12T17:52:09.716Z,22.90
2024-03-12T17:54:41.295Z,25.70
2024-03-12T17:57:10.080Z,23.80
2024-03-12T17:59:39.847Z,25.90
2024-03-12T18:02:16.160Z,24.80
2024-03-12T18:04:43.255Z,25.50
2024-03-12T18:07:24.428Z,24.40
2024-03-12T18:09:56.068Z,24.50
2024-03-12T18:12:22.940Z,24.00
2024-03-12T18:14:50.075Z,23.50
2024-03-12T18:17:21.664Z,24.10
2024-03-12T18:19:48.335Z,24.20
2024-03-12T18:22:15.518Z,24.70
2024-03-12T18:24:42.095Z,22.10
2024-03-12T18:27:08.659Z,25.10
2024-03-12T18:29:43.327Z,25.30
2024-03-12T18:32:11.640Z,25.50
2024-03-12T18:34:38.860Z,25.10
2024-03-12T18:37:07.124Z,25.30
2024-03-12T18:39:36.712Z,24.40
2024-03-12T18:42:03.202Z,25.70
2024-03-12T18:44:29.652Z,25.90
2024-03-12T18:46:57.148Z,25.40
2024-03-12T18:49:24.088Z,24.50
2024-03-12T18:51:52.541Z,26.30
2024-03-12T18:54:19.389Z,26.40
2024-03-12T18:56:50.010Z,27.00
2024-03-12T18:59:17.181Z,26.60
2024-03-12T19:01:44.575Z,25.20
2024-03-12T19:04:11.172Z,25.40
2024-03-12T19:06:38.854Z,26.70
2024-03-12T19:09:05.909Z,26.70
2024-03-12T19:11:33.232Z,26.50
2024-03-12T19:14:00.194Z,29.00
2024-03-12T19:16:26.778Z,27.20
2024-03-12T19:18:53.440Z,25.70
2024-03-12T19:21:23.121Z,28.20
2024-03-12T19:23:50.081Z,29.10
2024-03-12T19:26:18.661Z,27.90
2024-03-12T19:28:46.724Z,25.60
2024-03-12T19:31:16.789Z,28.20
2024-03-12T19:33:44.881Z,29.60
2024-03-12T19:36:13.239Z,28.80
2024-03-12T19:38:40.390Z,27.30
2024-03-12T19:41:13.621Z,26.70
2024-03-12T19:43:40.896Z,26.70
2024-03-12T19:46:09.006Z,23.80
2024-03-12T19:48:37.579Z,28.40
2024-03-12T19:53:31.665Z,26.40
2024-03-12T19:55:58.319Z,26.30
2024-03-12T19:58:26.161Z,26.40
2024-03-12T20:00:54.424Z,25.70
2024-03-12T20:03:26.128Z,24.30
2024-03-12T20:05:56.249Z,27.20
2024-03-12T20:08:24.250Z,25.70
2024-03-12T20:10:50.870Z,27.50
2024-03-12T20:13:17.664Z,24.90
2024-03-12T20:15:46.973Z,26.20
2024-03-12T20:18:14.971Z,24.20
2024-03-12T20:20:43.957Z,25.50
2024-03-12T20:23:13.181Z,26.50
2024-03-12T20:25:41.015Z,24.70
2024-03-12T20:28:11.467Z,23.60
2024-03-12T20:30:41.416Z,23.80
2024-03-12T20:33:09.791Z,21.30
2024-03-12T20:35:38.850Z,25.00
2024-03-12T20:38:10.055Z,23.10
2024-03-12T20:40:36.979Z,24.30
2024-03-12T20:43:03.671Z,23.10
2024-03-12T20:45:30.813Z,24.00
2024-03-12T20:47:57.614Z,24.20
2024-03-12T20:50:24.225Z,23.90
2024-03-12T20:52:51.645Z,23.10
2024-03-12T20:55:19.509Z,23.20
2024-03-12T20:57:49.644Z,21.90
2024-03-12T21:00:33.268Z,24.50
2024-03-12T21:02:59.908Z,21.50
2024-03-12T21:05:31.354Z,21.10
2024-03-12T21:07:58.408Z,23.00
2024-03-12T21:10:25.838Z,22.60
2024-03-12T21:12:54.714Z,20.90
2024-03-12T21:15:23.570Z,19.40
2024-03-12T21:17:50.345Z,19.50
2024-03-12T21:20:22.578Z,20.40
2024-03-12T21:22:50.644Z,19.10
2024-03-12T21:25:18.850Z,19.00
2024-03-12T21:30:15.442Z,19.00
2024-03-12T21:32:42.671Z,16.20
2024-03-12T21:35:10.507Z,16.40
2024-03-12T21:37:39.962Z,15.70
2024-03-12T21:40:12.119Z,15.70
2024-03-12T21:42:39.529Z,15.20
2024-03-12T21:45:10.857Z,14.80
2024-03-12T21:47:46.145Z,15.60
2024-03-12T21:50:17.572Z,16.40
2024-03-12T21:52:46.193Z,13.60
2024-03-12T21:55:13.112Z,15.90
2024-03-12T21:57:44.603Z,16.40
2024-03-12T22:00:19.874Z,15.90
2024-03-12T22:02:47.416Z,13.90
2024-03-12T22:05:15.887Z,16.40
2024-03-12T22:07:44.544Z,16.90
2024-03-12T22:10:14.290Z,18.50
2024-03-12T22:12:42.057Z,17.30
2024-03-12T22:15:12.266Z,18.80
2024-03-12T22:17:38.931Z,19.40
2024-03-12T22:20:09.413Z,20.30
2024-03-12T22:22:38.447Z,19.80
2024-03-12T22:25:05.581Z,18.80
2024-03-12T22:27:32.204Z,19.40
2024-03-12T22:29:59.145Z,20.50
2024-03-12T22:32:27.874Z,19.30
2024-03-12T22:34:55.736Z,20.50
2024-03-12T22:37:22.581Z,19.30
2024-03-12T22:39:49.626Z,22.20
2024-03-12T22:42:16.691Z,18.70
2024-03-12T22:44:43.411Z,19.50
2024-03-12T22:47:11.814Z,20.10
2024-03-12T22:52:08.340Z,15.50
2024-03-12T22:54:34.830Z,20.30
2024-03-12T22:57:02.323Z,19.20
2024-03-12T22:59:29.098Z,19.20
2024-03-12T23:01:56.999Z,19.20
2024-03-12T23:04:25.413Z,16.50
2024-03-12T23:06:54.246Z,17.90
2024-03-12T23:09:20.792Z,19.20
2024-03-12T23:11:47.559Z,17.90
2024-03-12T23:14:17.179Z,16.40
2024-03-12T23:16:44.176Z,18.80
2024-03-12T23:19:12.463Z,17.80
2024-03-12T23:21:39.447Z,17.90
2024-03-12T23:24:06.858Z,17.80
2024-03-12T23:26:33.282Z,18.80
2024-03-12T23:28:59.646Z,18.00
2024-03-12T23:31:26.716Z,18.30
2024-03-12T23:34:01.365Z,19.10
2024-03-12T23:36:31.474Z,18.70
2024-03-12T23:38:58.024Z,16.40
2024-03-12T23:41:24.797Z,16.90
2024-03-12T23:43:51.704Z,17.10
2024-03-12T23:46:20.158Z,16.20
2024-03-12T23:51:14.018Z,17.60
2024-03-12T23:53:40.510Z,16.30
2024-03-12T23:56:07.207Z,17.10
2024-03-12T23:58:34.920Z,15.70
